createdAt,value
2022-10-16T00:01:39.470Z,14.99
2022-10-16T00:04:06.450Z,14.98
2022-10-16T00:06:33.580Z,15.06
2022-10-16T00:09:00.818Z,15.09
2022-10-16T00:11:37.678Z,15.05
2022-10-16T00:14:09.010Z,15.13
2022-10-16T00:16:36.278Z,15.03
2022-10-16T00:19:03.833Z,15.02
2022-10-16T00:21:32.632Z,15.10
2022-10-16T00:24:07.444Z,15.03
2022-10-16T00:26:36.220Z,15.09
2022-10-16T00:29:03.930Z,15.30
2022-10-16T00:31:31.242Z,15.25
2022-10-16T00:33:58.688Z,15.11
2022-10-16T00:36:27.270Z,15.15
2022-10-16T00:38:57.217Z,15.30
2022-10-16T00:41:25.977Z,15.38
2022-10-16T00:44:24.537Z,15.41
2022-10-16T00:46:52.112Z,15.28
2022-10-16T00:49:21.734Z,15.45
2022-10-16T00:51:54.752Z,15.51
2022-10-16T00:54:31.029Z,15.51
2022-10-16T00:57:02.169Z,15.13
2022-10-16T00:59:37.068Z,15.19
2022-10-16T01:02:06.702Z,15.09
2022-10-16T01:04:41.372Z,15.16
2022-10-16T01:07:25.687Z,15.29
2022-10-16T01:10:10.706Z,15.06
2022-10-16T01:12:52.028Z,14.99
2022-10-16T01:15:33.839Z,14.89
2022-10-16T01:18:28.675Z,14.86
2022-10-16T01:21:05.271Z,15.20
2022-10-16T01:24:13.080Z,14.96
2022-10-16T01:27:17.298Z,14.94
2022-10-16T01:30:18.425Z,14.97
2022-10-16T01:33:16.863Z,15.08
2022-10-16T01:35:51.163Z,14.97
2022-10-16T01:38:26.907Z,14.93
2022-10-16T01:41:10.545Z,14.95
2022-10-16T01:44:26.150Z,14.82
2022-10-16T01:46:55.136Z,14.88
2022-10-16T01:49:25.646Z,14.90
2022-10-16T01:51:58.755Z,14.93
2022-10-16T01:54:30.251Z,14.98
2022-10-16T01:56:59.128Z,14.78
2022-10-16T01:59:30.650Z,14.94
2022-10-16T02:02:02.650Z,14.87
2022-10-16T02:04:35.552Z,14.93
2022-10-16T02:07:02.935Z,14.75
2022-10-16T02:09:31.901Z,14.79
2022-10-16T02:12:04.545Z,14.74
2022-10-16T02:14:32.181Z,14.83
2022-10-16T02:16:59.128Z,14.77
2022-10-16T02:19:26.313Z,14.56
2022-10-16T02:22:01.024Z,14.65
2022-10-16T02:25:07.302Z,14.49
2022-10-16T02:27:36.753Z,14.70
2022-10-16T02:30:19.374Z,14.58
2022-10-16T02:32:49.810Z,14.50
2022-10-16T02:35:20.246Z,14.59
2022-10-16T02:37:50.231Z,14.57
2022-10-16T02:40:21.506Z,14.65
2022-10-16T02:42:54.150Z,14.46
2022-10-16T02:45:21.491Z,14.44
2022-10-16T02:47:48.423Z,14.44
2022-10-16T02:50:16.218Z,14.46
2022-10-16T02:52:43.612Z,14.55
2022-10-16T02:55:10.562Z,14.65
2022-10-16T02:57:38.217Z,14.61
2022-10-16T03:00:07.782Z,14.51
2022-10-16T03:02:34.799Z,14.56
2022-10-16T03:05:01.977Z,14.68
2022-10-16T03:07:29.081Z,14.60
2022-10-16T03:09:56.513Z,14.53
2022-10-16T03:12:23.478Z,14.69
2022-10-16T03:14:50.400Z,14.52
2022-10-16T03:17:17.877Z,14.66
2022-10-16T03:19:44.893Z,14.56
2022-10-16T03:22:11.930Z,14.63
2022-10-16T03:24:38.855Z,14.47
2022-10-16T03:27:05.791Z,14.60
2022-10-16T03:29:33.912Z,14.55
2022-10-16T03:32:01.279Z,14.48
2022-10-16T03:34:28.927Z,14.62
2022-10-16T03:36:55.844Z,14.46
2022-10-16T03:39:22.799Z,14.33
2022-10-16T03:41:49.758Z,14.46
2022-10-16T03:44:16.718Z,14.52
2022-10-16T03:46:43.656Z,14.35
2022-10-16T03:49:10.628Z,14.39
2022-10-16T03:51:37.654Z,14.49
2022-10-16T03:54:04.602Z,14.48
2022-10-16T03:56:31.620Z,14.43
2022-10-16T03:58:58.549Z,14.46
2022-10-16T04:01:25.770Z,14.39
2022-10-16T04:03:52.736Z,14.33
2022-10-16T04:06:19.660Z,14.30
2022-10-16T04:08:46.945Z,14.21
2022-10-16T04:11:14.107Z,14.26
2022-10-16T04:13:41.081Z,14.09
2022-10-16T04:16:08.166Z,14.01
2022-10-16T04:18:36.200Z,14.14
2022-10-16T04:21:07.822Z,14.16
2022-10-16T04:23:35.089Z,14.06
2022-10-16T04:26:02.210Z,14.01
2022-10-16T04:28:29.487Z,14.06
2022-10-16T04:30:56.827Z,13.98
2022-10-16T04:33:23.768Z,13.94
2022-10-16T04:35:58.898Z,13.94
2022-10-16T04:38:26.310Z,13.80
2022-10-16T04:40:53.881Z,13.87
2022-10-16T04:43:21.714Z,14.11
2022-10-16T04:45:48.786Z,13.91
2022-10-16T04:48:15.747Z,13.86
2022-10-16T04:50:42.669Z,13.73
2022-10-16T04:53:09.611Z,13.80
2022-10-16T04:55:36.589Z,13.74
2022-10-16T04:58:03.631Z,13.99
2022-10-16T05:00:30.789Z,13.98
2022-10-16T05:03:00.490Z,13.83
2022-10-16T05:05:28.379Z,13.87
2022-10-16T05:07:55.386Z,13.95
2022-10-16T05:10:22.316Z,13.84
2022-10-16T05:12:49.278Z,13.82
2022-10-16T05:15:16.399Z,13.74
2022-10-16T05:17:44.740Z,13.89
2022-10-16T05:20:13.309Z,13.78
2022-10-16T05:22:40.254Z,13.90
2022-10-16T05:25:07.699Z,13.82
2022-10-16T05:27:34.722Z,13.93
2022-10-16T05:30:01.689Z,14.01
2022-10-16T05:32:28.641Z,13.91
2022-10-16T05:34:55.621Z,14.04
2022-10-16T05:37:22.636Z,14.04
2022-10-16T05:39:49.572Z,14.20
2022-10-16T05:42:16.587Z,14.12
2022-10-16T05:44:43.557Z,14.23
2022-10-16T05:47:11.756Z,14.38
2022-10-16T05:49:41.295Z,14.20
2022-10-16T05:52:08.677Z,14.25
2022-10-16T05:54:35.597Z,14.34
2022-10-16T05:57:03.182Z,14.43
2022-10-16T05:59:30.078Z,14.21
2022-10-16T06:01:57.051Z,14.07
2022-10-16T06:04:24.147Z,14.23
2022-10-16T06:06:51.207Z,14.20
2022-10-16T06:09:18.132Z,14.22
2022-10-16T06:11:45.101Z,14.42
2022-10-16T06:14:12.029Z,14.56
2022-10-16T06:16:39.284Z,14.56
2022-10-16T06:19:09.195Z,14.46
2022-10-16T06:21:36.343Z,14.60
2022-10-16T06:24:03.445Z,14.32
2022-10-16T06:26:32.370Z,14.60
2022-10-16T06:29:00.944Z,14.83
2022-10-16T06:31:31.812Z,14.89
2022-10-16T06:33:59.268Z,14.89
2022-10-16T06:36:27.081Z,15.19
2022-10-16T06:38:54.299Z,16.20
2022-10-16T06:41:23.642Z,18.19
2022-10-16T06:43:50.967Z,19.36
2022-10-16T06:46:22.576Z,20.72
2022-10-16T06:48:49.640Z,21.47
2022-10-16T06:51:24.049Z,22.30
2022-10-16T06:54:03.413Z,22.49
2022-10-16T06:56:32.882Z,23.55
2022-10-16T06:59:00.535Z,23.98
2022-10-16T07:01:28.978Z,24.98
2022-10-16T07:03:55.966Z,22.89
2022-10-16T07:06:25.297Z,20.97
2022-10-16T07:08:52.896Z,19.73
2022-10-16T07:11:24.480Z,18.73
2022-10-16T07:13:55.928Z,18.53
2022-10-16T07:16:29.569Z,17.64
2022-10-16T07:19:01.926Z,17.54
2022-10-16T07:21:36.226Z,17.26
2022-10-16T07:24:04.922Z,17.10
2022-10-16T07:26:35.019Z,17.10
2022-10-16T07:29:02.282Z,16.85
2022-10-16T07:31:29.527Z,16.71
2022-10-16T07:33:58.777Z,16.70
2022-10-16T07:36:25.815Z,16.81
2022-10-16T07:38:55.456Z,17.16
2022-10-16T07:41:25.681Z,18.18
2022-10-16T07:43:55.473Z,19.14
2022-10-16T07:46:23.755Z,20.22
2022-10-16T07:48:51.499Z,20.30
2022-10-16T07:51:24.835Z,20.05
2022-10-16T07:53:52.839Z,19.90
2022-10-16T07:56:21.822Z,20.42
2022-10-16T07:58:50.786Z,20.20
2022-10-16T08:01:19.260Z,20.20
2022-10-16T08:03:49.537Z,19.69
2022-10-16T08:06:19.747Z,20.06
2022-10-16T08:08:49.085Z,20.01
2022-10-16T08:11:16.151Z,20.32
2022-10-16T08:13:43.570Z,20.76
2022-10-16T08:16:10.938Z,20.44
2022-10-16T08:18:40.879Z,20.41
2022-10-16T08:21:21.791Z,20.66
2022-10-16T08:23:54.472Z,20.69
2022-10-16T08:26:24.314Z,20.87
2022-10-16T08:28:52.994Z,20.83
2022-10-16T08:31:21.102Z,21.00
2022-10-16T08:33:48.823Z,21.39
2022-10-16T08:36:17.475Z,20.90
2022-10-16T08:38:44.976Z,21.15
2022-10-16T08:41:19.084Z,21.20
2022-10-16T08:44:14.880Z,21.31
2022-10-16T08:47:22.015Z,21.14
2022-10-16T08:50:04.156Z,20.57
2022-10-16T08:52:36.455Z,21.24
2022-10-16T08:55:05.842Z,21.83
2022-10-16T08:57:33.658Z,22.38
2022-10-16T09:00:14.010Z,22.27
2022-10-16T09:03:23.293Z,21.93
2022-10-16T09:06:26.247Z,22.18
2022-10-16T09:09:28.413Z,22.01
2022-10-16T09:12:16.067Z,22.73
2022-10-16T09:15:06.398Z,23.08
2022-10-16T09:17:36.303Z,23.95
2022-10-16T09:20:27.221Z,23.92
2022-10-16T09:23:17.292Z,23.67
2022-10-16T09:25:49.353Z,23.20
2022-10-16T09:28:18.448Z,23.70
2022-10-16T09:30:46.920Z,23.53
2022-10-16T09:33:15.843Z,23.29
2022-10-16T09:35:51.762Z,23.41
2022-10-16T09:38:35.349Z,23.12
2022-10-16T09:41:17.596Z,22.88
2022-10-16T09:43:59.464Z,22.20
2022-10-16T09:46:36.944Z,22.42
2022-10-16T09:49:20.066Z,22.48
2022-10-16T09:51:47.188Z,22.42
2022-10-16T09:54:21.405Z,22.12
2022-10-16T09:56:54.806Z,22.42
2022-10-16T09:59:27.704Z,22.35
2022-10-16T10:01:56.261Z,22.51
2022-10-16T10:04:26.998Z,22.57
2022-10-16T10:06:56.674Z,22.53
2022-10-16T10:09:45.403Z,22.61
2022-10-16T10:12:26.840Z,23.14
2022-10-16T10:14:58.086Z,23.21
2022-10-16T10:17:29.739Z,22.46
2022-10-16T10:20:23.858Z,22.67
2022-10-16T10:22:50.876Z,22.36
2022-10-16T10:25:39.502Z,22.58
2022-10-16T10:28:50.493Z,22.45
2022-10-16T10:32:07.490Z,22.02
2022-10-16T10:35:21.578Z,22.22
2022-10-16T10:38:33.680Z,21.88
2022-10-16T10:41:31.321Z,22.18
2022-10-16T10:44:35.083Z,21.83
2022-10-16T10:47:29.835Z,21.96
2022-10-16T10:50:23.965Z,21.61
2022-10-16T10:53:13.551Z,21.52
2022-10-16T10:56:22.150Z,21.38
2022-10-16T10:59:10.600Z,21.60
2022-10-16T11:02:19.015Z,21.38
2022-10-16T11:05:16.558Z,21.60
2022-10-16T11:08:17.074Z,21.56
2022-10-16T11:10:58.730Z,21.63
2022-10-16T11:13:59.309Z,21.72
2022-10-16T11:16:46.920Z,21.41
2022-10-16T11:19:29.339Z,21.23
2022-10-16T11:22:01.408Z,21.25
2022-10-16T11:25:03.935Z,21.14
2022-10-16T11:27:54.791Z,21.65
2022-10-16T11:30:47.978Z,21.80
2022-10-16T11:33:36.215Z,21.64
2022-10-16T11:36:29.833Z,21.46
2022-10-16T11:39:07.831Z,21.30
2022-10-16T11:41:43.236Z,21.71
2022-10-16T11:44:43.351Z,21.72
2022-10-16T11:50:47.371Z,21.37
2022-10-16T11:53:25.857Z,21.48
2022-10-16T11:55:53.047Z,21.48
2022-10-16T11:58:34.366Z,21.19
2022-10-16T12:01:10.442Z,21.37
2022-10-16T12:03:59.513Z,21.18
2022-10-16T12:06:58.863Z,21.37
2022-10-16T12:09:30.658Z,21.26
2022-10-16T12:11:58.306Z,21.03
2022-10-16T12:14:42.957Z,21.02
2022-10-16T12:17:21.771Z,21.21
2022-10-16T12:20:13.331Z,21.14
2022-10-16T12:23:05.595Z,21.21
2022-10-16T12:25:47.674Z,21.27
2022-10-16T12:28:17.382Z,21.35
2022-10-16T12:30:53.925Z,21.40
2022-10-16T12:33:27.297Z,21.41
2022-10-16T12:35:55.189Z,21.31
2022-10-16T12:38:50.202Z,21.18
2022-10-16T12:41:31.747Z,21.26
2022-10-16T12:44:04.477Z,20.85
2022-10-16T12:46:31.287Z,21.11
2022-10-16T12:49:30.040Z,20.88
2022-10-16T12:51:58.179Z,20.91
2022-10-16T12:54:37.272Z,20.99
2022-10-16T12:57:24.590Z,20.94
2022-10-16T13:00:27.640Z,20.75
2022-10-16T13:03:21.682Z,20.67
2022-10-16T13:06:06.571Z,20.77
2022-10-16T13:09:13.203Z,20.79
2022-10-16T13:11:52.903Z,20.51
2022-10-16T13:15:17.805Z,20.71
2022-10-16T13:18:03.406Z,20.58
2022-10-16T13:20:54.793Z,20.66
2022-10-16T13:23:37.309Z,20.56
2022-10-16T13:26:15.271Z,20.35
2022-10-16T13:28:42.338Z,20.37
2022-10-16T13:31:21.412Z,20.35
2022-10-16T13:33:56.007Z,20.35
2022-10-16T13:36:29.160Z,20.17
2022-10-16T13:39:21.979Z,19.96
2022-10-16T13:42:03.512Z,20.05
2022-10-16T13:44:49.635Z,19.96
2022-10-16T13:47:26.268Z,20.07
2022-10-16T13:50:15.432Z,20.30
2022-10-16T13:52:42.572Z,20.42
2022-10-16T13:55:18.881Z,20.16
2022-10-16T13:57:46.500Z,20.06
2022-10-16T14:00:19.605Z,20.18
2022-10-16T14:02:52.246Z,20.37
2022-10-16T14:05:19.199Z,20.26
2022-10-16T14:07:52.642Z,20.13
2022-10-16T14:10:33.697Z,20.15
2022-10-16T14:13:09.287Z,20.18
2022-10-16T14:15:37.723Z,20.20
2022-10-16T14:18:05.343Z,20.31
2022-10-16T14:20:35.259Z,20.17
2022-10-16T14:23:20.160Z,20.18
2022-10-16T14:25:47.656Z,20.31
2022-10-16T14:28:14.476Z,20.16
2022-10-16T14:30:55.990Z,20.17
2022-10-16T14:33:34.720Z,20.25
2022-10-16T14:36:10.505Z,20.08
2022-10-16T14:38:40.345Z,20.27
2022-10-16T14:41:08.013Z,20.31
2022-10-16T14:43:41.111Z,20.36
2022-10-16T14:46:15.252Z,20.33
2022-10-16T14:48:50.801Z,20.20
2022-10-16T14:51:20.796Z,20.01
2022-10-16T14:53:48.208Z,20.17
2022-10-16T14:56:22.061Z,20.26
2022-10-16T14:58:50.828Z,20.11
2022-10-16T15:01:18.168Z,20.22
2022-10-16T15:03:45.913Z,20.08
2022-10-16T15:06:14.664Z,20.00
2022-10-16T15:08:42.425Z,19.97
2022-10-16T15:11:18.981Z,19.89
2022-10-16T15:13:47.382Z,19.95
2022-10-16T15:16:17.368Z,19.91
2022-10-16T15:18:44.772Z,19.81
2022-10-16T15:21:28.601Z,19.79
2022-10-16T15:23:57.497Z,19.71
2022-10-16T15:26:29.512Z,19.68
2022-10-16T15:28:57.329Z,19.62
2022-10-16T15:31:25.170Z,19.63
2022-10-16T15:33:57.147Z,19.55
2022-10-16T15:36:29.720Z,19.72
2022-10-16T15:38:57.081Z,19.58
2022-10-16T15:41:24.280Z,19.68
2022-10-16T15:43:51.829Z,19.68
2022-10-16T15:46:24.159Z,19.55
2022-10-16T15:48:52.405Z,19.56
2022-10-16T15:51:19.790Z,19.61
2022-10-16T15:53:47.512Z,19.49
2022-10-16T15:56:15.482Z,19.51
2022-10-16T15:58:42.776Z,19.39
2022-10-16T16:01:11.494Z,19.27
2022-10-16T16:03:41.579Z,19.39
2022-10-16T16:06:11.834Z,19.35
2022-10-16T16:08:39.891Z,19.29
2022-10-16T16:11:12.596Z,19.19
2022-10-16T16:13:41.050Z,19.33
2022-10-16T16:16:13.425Z,19.17
2022-10-16T16:18:41.073Z,19.21
2022-10-16T16:21:08.870Z,19.21
2022-10-16T16:23:36.214Z,19.05
2022-10-16T16:26:15.461Z,18.98
2022-10-16T16:28:44.086Z,19.02
2022-10-16T16:31:11.331Z,19.22
2022-10-16T16:33:38.403Z,19.07
2022-10-16T16:36:11.513Z,19.06
2022-10-16T16:38:41.667Z,18.87
2022-10-16T16:41:26.821Z,18.91
2022-10-16T16:43:55.528Z,18.93
2022-10-16T16:46:22.952Z,18.87
2022-10-16T16:48:54.525Z,19.04
2022-10-16T16:51:21.556Z,18.89
2022-10-16T16:53:51.814Z,18.73
2022-10-16T16:56:20.093Z,18.93
2022-10-16T16:58:51.173Z,18.82
2022-10-16T17:01:20.678Z,18.99
2022-10-16T17:03:52.768Z,18.87
2022-10-16T17:06:22.988Z,18.80
2022-10-16T17:08:50.964Z,18.67
2022-10-16T17:11:22.851Z,18.68
2022-10-16T17:13:56.457Z,18.72
2022-10-16T17:16:32.249Z,18.62
2022-10-16T17:19:06.157Z,18.74
2022-10-16T17:21:33.485Z,18.61
2022-10-16T17:24:01.607Z,18.50
2022-10-16T17:26:29.208Z,18.47
2022-10-16T17:28:59.616Z,18.52
2022-10-16T17:31:33.901Z,18.50
2022-10-16T17:34:04.646Z,18.43
2022-10-16T17:36:35.020Z,18.41
2022-10-16T17:39:09.078Z,18.41
2022-10-16T17:41:36.913Z,18.43
2022-10-16T17:44:05.380Z,18.41
2022-10-16T17:46:36.953Z,18.37
2022-10-16T17:49:07.217Z,18.31
2022-10-16T17:51:34.231Z,18.39
2022-10-16T17:54:02.648Z,18.34
2022-10-16T17:56:31.274Z,18.34
2022-10-16T17:59:01.774Z,18.41
2022-10-16T18:01:32.573Z,18.30
2022-10-16T18:04:07.436Z,18.49
2022-10-16T18:06:35.363Z,18.32
2022-10-16T18:09:04.393Z,18.33
2022-10-16T18:11:31.612Z,18.61
2022-10-16T18:14:00.257Z,18.35
2022-10-16T18:16:30.436Z,18.40
2022-10-16T18:18:59.050Z,18.52
2022-10-16T18:21:28.002Z,18.49
2022-10-16T18:23:55.439Z,18.18
2022-10-16T18:26:23.645Z,18.11
2022-10-16T18:28:55.952Z,18.04
2022-10-16T18:31:23.745Z,18.48
2022-10-16T18:33:51.471Z,18.25
2022-10-16T18:36:32.380Z,18.29
2022-10-16T18:39:01.024Z,18.17
2022-10-16T18:41:29.208Z,18.16
2022-10-16T18:43:56.483Z,18.17
2022-10-16T18:46:25.453Z,17.98
2022-10-16T18:48:54.332Z,18.04
2022-10-16T18:51:31.320Z,17.90
2022-10-16T18:54:04.985Z,17.79
2022-10-16T18:56:32.813Z,17.97
2022-10-16T18:59:02.458Z,17.70
2022-10-16T19:01:32.657Z,17.73
2022-10-16T19:04:07.205Z,17.76
2022-10-16T19:06:42.834Z,17.71
2022-10-16T19:09:10.987Z,17.73
2022-10-16T19:11:41.619Z,17.57
2022-10-16T19:14:10.489Z,17.45
2022-10-16T19:16:38.127Z,17.42
2022-10-16T19:19:08.857Z,17.40
2022-10-16T19:21:39.747Z,17.56
2022-10-16T19:24:08.302Z,17.38
2022-10-16T19:26:38.114Z,17.32
2022-10-16T19:29:09.221Z,17.25
2022-10-16T19:31:36.550Z,17.19
2022-10-16T19:34:06.760Z,17.18
2022-10-16T19:36:38.422Z,17.23
2022-10-16T19:39:13.511Z,17.08
2022-10-16T19:41:41.257Z,17.13
2022-10-16T19:44:13.162Z,17.07
2022-10-16T19:46:40.065Z,16.96
2022-10-16T19:49:12.351Z,16.93
2022-10-16T19:51:40.291Z,16.90
2022-10-16T19:54:11.981Z,16.86
2022-10-16T19:56:39.233Z,16.88
2022-10-16T19:59:08.779Z,16.95
2022-10-16T20:01:35.850Z,16.93
2022-10-16T20:04:02.804Z,16.93
2022-10-16T20:06:29.741Z,16.94
2022-10-16T20:08:58.321Z,17.03
2022-10-16T20:11:29.276Z,16.82
2022-10-16T20:13:56.996Z,16.75
2022-10-16T20:16:24.691Z,16.74
2022-10-16T20:18:52.819Z,16.77
2022-10-16T20:21:27.024Z,16.98
2022-10-16T20:23:54.093Z,16.95
2022-10-16T20:26:25.911Z,16.89
2022-10-16T20:28:54.428Z,16.72
2022-10-16T20:31:28.276Z,16.57
2022-10-16T20:33:57.662Z,16.61
2022-10-16T20:36:26.805Z,16.51
2022-10-16T20:38:54.256Z,16.51
2022-10-16T20:41:22.604Z,16.53
2022-10-16T20:43:52.283Z,16.48
2022-10-16T20:46:23.538Z,16.46
2022-10-16T20:48:52.496Z,16.49
2022-10-16T20:51:26.225Z,16.46
2022-10-16T20:54:04.309Z,16.40
2022-10-16T20:56:33.991Z,16.35
2022-10-16T20:59:01.103Z,16.43
2022-10-16T21:01:31.057Z,16.36
2022-10-16T21:04:02.033Z,16.38
2022-10-16T21:06:31.696Z,16.40
2022-10-16T21:09:02.941Z,16.32
2022-10-16T21:11:33.814Z,16.21
2022-10-16T21:14:03.659Z,16.24
2022-10-16T21:16:31.894Z,16.21
2022-10-16T21:18:58.991Z,16.12
2022-10-16T21:21:33.022Z,16.18
2022-10-16T21:24:00.902Z,16.19
2022-10-16T21:26:30.210Z,16.19
2022-10-16T21:28:59.397Z,16.20
2022-10-16T21:31:27.295Z,16.10
2022-10-16T21:33:55.433Z,16.08
2022-10-16T21:36:32.124Z,16.11
2022-10-16T21:39:06.297Z,16.00
2022-10-16T21:41:34.397Z,16.03
2022-10-16T21:44:02.261Z,16.05
2022-10-16T21:46:33.174Z,15.98
2022-10-16T21:49:02.932Z,15.99
2022-10-16T21:51:34.297Z,15.93
2022-10-16T21:54:03.464Z,15.92
2022-10-16T21:56:30.674Z,15.91
2022-10-16T21:58:58.018Z,15.93
2022-10-16T22:01:27.500Z,15.89
2022-10-16T22:03:55.267Z,15.88
2022-10-16T22:06:25.615Z,15.77
2022-10-16T22:08:56.255Z,15.79
2022-10-16T22:11:36.959Z,15.80
2022-10-16T22:14:09.686Z,15.71
2022-10-16T22:16:37.452Z,15.70
2022-10-16T22:19:07.446Z,15.70
2022-10-16T22:21:40.241Z,15.57
2022-10-16T22:24:07.966Z,15.65
2022-10-16T22:26:36.191Z,15.64
2022-10-16T22:29:03.948Z,15.59
2022-10-16T22:31:31.001Z,15.57
2022-10-16T22:34:03.403Z,15.60
2022-10-16T22:36:31.498Z,15.59
2022-10-16T22:38:59.343Z,15.48
2022-10-16T22:41:26.720Z,15.48
2022-10-16T22:43:53.979Z,15.47
2022-10-16T22:46:27.461Z,15.44
2022-10-16T22:48:55.983Z,15.34
2022-10-16T22:51:25.063Z,15.46
2022-10-16T22:53:52.072Z,15.41
2022-10-16T22:56:20.985Z,15.36
2022-10-16T22:58:47.990Z,15.32
2022-10-16T23:01:31.182Z,15.36
2022-10-16T23:03:58.265Z,15.54
2022-10-16T23:06:25.402Z,15.44
2022-10-16T23:08:55.685Z,15.36
2022-10-16T23:11:23.319Z,15.29
2022-10-16T23:13:50.693Z,15.31
2022-10-16T23:16:20.287Z,15.22
2022-10-16T23:18:48.525Z,15.31
2022-10-16T23:21:22.578Z,15.14
2022-10-16T23:23:51.208Z,15.16
2022-10-16T23:26:26.522Z,15.30
2022-10-16T23:28:56.062Z,15.19
2022-10-16T23:31:23.166Z,15.10
2022-10-16T23:33:50.178Z,15.19
2022-10-16T23:36:20.423Z,15.11
2022-10-16T23:38:48.917Z,15.05
2022-10-16T23:41:17.274Z,15.07
2022-10-16T23:43:44.267Z,15.08
2022-10-16T23:46:12.887Z,15.08
2022-10-16T23:48:40.606Z,15.16
2022-10-16T23:51:10.051Z,15.13
2022-10-16T23:53:37.632Z,15.00
2022-10-16T23:56:05.256Z,15.00
2022-10-16T23:58:32.225Z,14.98
